sensor_id;sensor_type;location;lat;lon;timestamp;P1;durP1;ratioP1;P2;durP2;ratioP2
24335;SDS011;33098;52.400;16.880;2023-05-07T00:01:54;6.90;;;4.90;;
24335;SDS011;33098;52.400;16.880;2023-05-07T00:04:23;9.70;;;5.30;;
24335;SDS011;33098;52.400;16.880;2023-05-07T00:06:50;8.70;;;5.40;;
24335;SDS011;33098;52.400;16.880;2023-05-07T00:09:18;8.10;;;5.60;;
24335;SDS011;33098;52.400;16.880;2023-05-07T00:11:45;7.50;;;4.90;;
24335;SDS011;33098;52.400;16.880;2023-05-07T00:14:12;9.80;;;5.10;;
24335;SDS011;33098;52.400;16.880;2023-05-07T00:16:39;8.00;;;4.90;;
24335;SDS011;33098;52.400;16.880;2023-05-07T00:19:05;7.20;;;4.80;;
24335;SDS011;33098;52.400;16.880;2023-05-07T00:21:32;8.10;;;4.90;;
24335;SDS011;33098;52.400;16.880;2023-05-07T00:23:58;8.10;;;4.90;;
24335;SDS011;33098;52.400;16.880;2023-05-07T00:26:28;10.50;;;5.30;;
24335;SDS011;33098;52.400;16.880;2023-05-07T00:28:54;8.30;;;5.10;;
24335;SDS011;33098;52.400;16.880;2023-05-07T00:31:24;7.80;;;4.90;;
24335;SDS011;33098;52.400;16.880;2023-05-07T00:33:51;6.40;;;4.70;;
24335;SDS011;33098;52.400;16.880;2023-05-07T00:36:21;6.30;;;4.90;;
24335;SDS011;33098;52.400;16.880;2023-05-07T00:38:47;8.10;;;4.40;;
24335;SDS011;33098;52.400;16.880;2023-05-07T00:41:14;5.90;;;4.60;;
24335;SDS011;33098;52.400;16.880;2023-05-07T00:43:43;6.70;;;5.00;;
24335;SDS011;33098;52.400;16.880;2023-05-07T00:46:10;9.40;;;5.30;;
24335;SDS011;33098;52.400;16.880;2023-05-07T00:48:38;7.10;;;5.00;;
24335;SDS011;33098;52.400;16.880;2023-05-07T00:51:09;7.70;;;5.30;;
24335;SDS011;33098;52.400;16.880;2023-05-07T00:53:37;10.20;;;4.90;;
24335;SDS011;33098;52.400;16.880;2023-05-07T00:56:06;9.30;;;5.40;;
24335;SDS011;33098;52.400;16.880;2023-05-07T00:58:33;6.70;;;5.30;;
24335;SDS011;33098;52.400;16.880;2023-05-07T01:01:01;8.20;;;5.60;;
24335;SDS011;33098;52.400;16.880;2023-05-07T01:03:31;8.00;;;5.40;;
24335;SDS011;33098;52.400;16.880;2023-05-07T01:05:57;7.20;;;5.70;;
24335;SDS011;33098;52.400;16.880;2023-05-07T01:08:26;8.20;;;5.60;;
24335;SDS011;33098;52.400;16.880;2023-05-07T01:10:56;7.40;;;5.50;;
24335;SDS011;33098;52.400;16.880;2023-05-07T01:13:26;7.10;;;5.70;;
24335;SDS011;33098;52.400;16.880;2023-05-07T01:15:54;8.30;;;6.00;;
24335;SDS011;33098;52.400;16.880;2023-05-07T01:18:21;8.70;;;6.00;;
24335;SDS011;33098;52.400;16.880;2023-05-07T01:20:48;8.00;;;6.40;;
24335;SDS011;33098;52.400;16.880;2023-05-07T01:23:15;11.70;;;6.20;;
24335;SDS011;33098;52.400;16.880;2023-05-07T01:25:50;9.10;;;6.50;;
24335;SDS011;33098;52.400;16.880;2023-05-07T01:28:18;10.00;;;6.30;;
24335;SDS011;33098;52.400;16.880;2023-05-07T01:30:54;9.30;;;6.40;;
24335;SDS011;33098;52.400;16.880;2023-05-07T01:33:27;8.00;;;6.10;;
24335;SDS011;33098;52.400;16.880;2023-05-07T01:38:28;8.20;;;5.80;;
24335;SDS011;33098;52.400;16.880;2023-05-07T01:40:56;10.40;;;6.30;;
24335;SDS011;33098;52.400;16.880;2023-05-07T01:43:24;12.00;;;6.70;;
24335;SDS011;33098;52.400;16.880;2023-05-07T01:45:51;10.00;;;6.50;;
24335;SDS011;33098;52.400;16.880;2023-05-07T01:48:19;8.90;;;6.40;;
24335;SDS011;33098;52.400;16.880;2023-05-07T01:50:47;9.10;;;6.10;;
24335;SDS011;33098;52.400;16.880;2023-05-07T01:53:17;8.30;;;5.50;;
24335;SDS011;33098;52.400;16.880;2023-05-07T01:55:44;9.50;;;6.30;;
24335;SDS011;33098;52.400;16.880;2023-05-07T01:58:11;7.70;;;5.80;;
24335;SDS011;33098;52.400;16.880;2023-05-07T02:00:39;8.90;;;6.40;;
24335;SDS011;33098;52.400;16.880;2023-05-07T02:03:07;8.40;;;6.20;;
24335;SDS011;33098;52.400;16.880;2023-05-07T02:05:49;8.60;;;5.90;;
24335;SDS011;33098;52.400;16.880;2023-05-07T02:08:48;9.60;;;6.10;;
24335;SDS011;33098;52.400;16.880;2023-05-07T02:11:16;7.70;;;5.60;;
24335;SDS011;33098;52.400;16.880;2023-05-07T02:13:43;7.10;;;6.00;;
24335;SDS011;33098;52.400;16.880;2023-05-07T02:16:09;10.00;;;6.60;;
24335;SDS011;33098;52.400;16.880;2023-05-07T02:18:38;10.70;;;6.40;;
24335;SDS011;33098;52.400;16.880;2023-05-07T02:21:04;8.20;;;6.00;;
24335;SDS011;33098;52.400;16.880;2023-05-07T02:23:33;12.90;;;6.00;;
24335;SDS011;33098;52.400;16.880;2023-05-07T02:26:00;8.80;;;6.30;;
24335;SDS011;33098;52.400;16.880;2023-05-07T02:28:26;9.70;;;6.80;;
24335;SDS011;33098;52.400;16.880;2023-05-07T02:31:04;11.60;;;6.60;;
24335;SDS011;33098;52.400;16.880;2023-05-07T02:33:36;10.00;;;6.70;;
24335;SDS011;33098;52.400;16.880;2023-05-07T02:36:11;10.80;;;6.70;;
24335;SDS011;33098;52.400;16.880;2023-05-07T02:38:49;9.70;;;6.60;;
24335;SDS011;33098;52.400;16.880;2023-05-07T02:41:16;8.60;;;6.60;;
24335;SDS011;33098;52.400;16.880;2023-05-07T02:43:43;10.70;;;6.90;;
24335;SDS011;33098;52.400;16.880;2023-05-07T02:46:10;10.50;;;7.30;;
24335;SDS011;33098;52.400;16.880;2023-05-07T02:48:40;9.70;;;7.20;;
24335;SDS011;33098;52.400;16.880;2023-05-07T02:51:10;10.30;;;7.30;;
24335;SDS011;33098;52.400;16.880;2023-05-07T02:53:38;10.60;;;6.90;;
24335;SDS011;33098;52.400;16.880;2023-05-07T02:56:04;9.70;;;7.20;;
24335;SDS011;33098;52.400;16.880;2023-05-07T02:58:41;9.40;;;6.70;;
24335;SDS011;33098;52.400;16.880;2023-05-07T03:01:12;11.50;;;7.30;;
24335;SDS011;33098;52.400;16.880;2023-05-07T03:03:52;11.30;;;7.70;;
24335;SDS011;33098;52.400;16.880;2023-05-07T03:06:18;11.50;;;7.20;;
24335;SDS011;33098;52.400;16.880;2023-05-07T03:08:45;11.80;;;7.10;;
24335;SDS011;33098;52.400;16.880;2023-05-07T03:11:12;12.00;;;7.50;;
24335;SDS011;33098;52.400;16.880;2023-05-07T03:13:38;10.40;;;7.10;;
24335;SDS011;33098;52.400;16.880;2023-05-07T03:16:05;9.10;;;7.30;;
24335;SDS011;33098;52.400;16.880;2023-05-07T03:18:32;10.90;;;7.30;;
24335;SDS011;33098;52.400;16.880;2023-05-07T03:20:58;11.30;;;7.20;;
24335;SDS011;33098;52.400;16.880;2023-05-07T03:23:25;9.20;;;7.40;;
24335;SDS011;33098;52.400;16.880;2023-05-07T03:25:52;9.20;;;6.80;;
24335;SDS011;33098;52.400;16.880;2023-05-07T03:28:19;8.00;;;6.40;;
24335;SDS011;33098;52.400;16.880;2023-05-07T03:30:51;11.30;;;6.70;;
24335;SDS011;33098;52.400;16.880;2023-05-07T03:33:20;10.70;;;7.10;;
24335;SDS011;33098;52.400;16.880;2023-05-07T03:35:47;12.10;;;7.10;;
24335;SDS011;33098;52.400;16.880;2023-05-07T03:38:18;11.10;;;6.70;;
24335;SDS011;33098;52.400;16.880;2023-05-07T03:40:45;10.60;;;7.00;;
24335;SDS011;33098;52.400;16.880;2023-05-07T03:43:12;9.50;;;6.80;;
24335;SDS011;33098;52.400;16.880;2023-05-07T03:45:49;13.50;;;6.30;;
24335;SDS011;33098;52.400;16.880;2023-05-07T03:48:19;10.70;;;7.40;;
24335;SDS011;33098;52.400;16.880;2023-05-07T03:50:51;11.90;;;7.10;;
24335;SDS011;33098;52.400;16.880;2023-05-07T03:53:21;10.60;;;6.80;;
24335;SDS011;33098;52.400;16.880;2023-05-07T03:55:48;7.90;;;6.70;;
24335;SDS011;33098;52.400;16.880;2023-05-07T03:58:15;9.60;;;6.20;;
24335;SDS011;33098;52.400;16.880;2023-05-07T04:00:50;10.80;;;6.70;;
24335;SDS011;33098;52.400;16.880;2023-05-07T04:03:26;9.30;;;6.50;;
24335;SDS011;33098;52.400;16.880;2023-05-07T04:05:53;11.60;;;6.90;;
24335;SDS011;33098;52.400;16.880;2023-05-07T04:08:19;8.10;;;5.90;;
24335;SDS011;33098;52.400;16.880;2023-05-07T04:10:48;8.70;;;6.60;;
24335;SDS011;33098;52.400;16.880;2023-05-07T04:13:14;9.30;;;6.80;;
24335;SDS011;33098;52.400;16.880;2023-05-07T04:15:44;12.60;;;7.50;;
24335;SDS011;33098;52.400;16.880;2023-05-07T04:18:13;8.40;;;6.60;;
24335;SDS011;33098;52.400;16.880;2023-05-07T04:20:41;9.30;;;6.40;;
24335;SDS011;33098;52.400;16.880;2023-05-07T04:23:10;9.90;;;6.70;;
24335;SDS011;33098;52.400;16.880;2023-05-07T04:25:37;8.50;;;6.40;;
24335;SDS011;33098;52.400;16.880;2023-05-07T04:28:09;9.30;;;6.70;;
24335;SDS011;33098;52.400;16.880;2023-05-07T04:30:37;13.10;;;7.40;;
24335;SDS011;33098;52.400;16.880;2023-05-07T04:33:05;10.30;;;6.80;;
24335;SDS011;33098;52.400;16.880;2023-05-07T04:35:35;10.10;;;6.80;;
24335;SDS011;33098;52.400;16.880;2023-05-07T04:38:12;9.20;;;6.60;;
24335;SDS011;33098;52.400;16.880;2023-05-07T04:40:42;9.50;;;6.80;;
24335;SDS011;33098;52.400;16.880;2023-05-07T04:43:13;13.20;;;6.80;;
24335;SDS011;33098;52.400;16.880;2023-05-07T04:45:45;9.20;;;6.90;;
24335;SDS011;33098;52.400;16.880;2023-05-07T04:48:12;9.00;;;6.90;;
24335;SDS011;33098;52.400;16.880;2023-05-07T04:50:48;10.00;;;6.80;;
24335;SDS011;33098;52.400;16.880;2023-05-07T04:53:21;9.10;;;6.90;;
24335;SDS011;33098;52.400;16.880;2023-05-07T04:55:49;10.80;;;7.20;;
24335;SDS011;33098;52.400;16.880;2023-05-07T04:58:27;11.10;;;8.00;;
24335;SDS011;33098;52.400;16.880;2023-05-07T05:00:54;9.90;;;7.10;;
24335;SDS011;33098;52.400;16.880;2023-05-07T05:03:20;9.20;;;7.00;;
24335;SDS011;33098;52.400;16.880;2023-05-07T05:05:53;9.30;;;6.90;;
24335;SDS011;33098;52.400;16.880;2023-05-07T05:08:21;9.00;;;7.10;;
24335;SDS011;33098;52.400;16.880;2023-05-07T05:10:48;10.10;;;6.40;;
24335;SDS011;33098;52.400;16.880;2023-05-07T05:13:18;11.10;;;6.40;;
24335;SDS011;33098;52.400;16.880;2023-05-07T05:15:47;8.70;;;6.70;;
24335;SDS011;33098;52.400;16.880;2023-05-07T05:18:15;9.00;;;6.40;;
24335;SDS011;33098;52.400;16.880;2023-05-07T05:20:41;8.50;;;5.80;;
24335;SDS011;33098;52.400;16.880;2023-05-07T05:23:08;9.00;;;5.20;;
24335;SDS011;33098;52.400;16.880;2023-05-07T05:25:35;7.40;;;5.10;;
24335;SDS011;33098;52.400;16.880;2023-05-07T05:28:04;6.50;;;5.00;;
24335;SDS011;33098;52.400;16.880;2023-05-07T05:30:31;7.90;;;4.60;;
24335;SDS011;33098;52.400;16.880;2023-05-07T05:32:58;5.10;;;4.10;;
24335;SDS011;33098;52.400;16.880;2023-05-07T05:35:26;6.20;;;4.40;;
24335;SDS011;33098;52.400;16.880;2023-05-07T05:37:53;6.30;;;4.60;;
24335;SDS011;33098;52.400;16.880;2023-05-07T05:40:21;6.60;;;4.50;;
24335;SDS011;33098;52.400;16.880;2023-05-07T05:42:56;8.10;;;4.40;;
24335;SDS011;33098;52.400;16.880;2023-05-07T05:45:23;6.60;;;4.20;;
24335;SDS011;33098;52.400;16.880;2023-05-07T05:47:51;7.80;;;4.40;;
24335;SDS011;33098;52.400;16.880;2023-05-07T05:50:18;7.40;;;4.30;;
24335;SDS011;33098;52.400;16.880;2023-05-07T05:52:45;6.00;;;4.40;;
24335;SDS011;33098;52.400;16.880;2023-05-07T05:55:12;6.70;;;4.40;;
24335;SDS011;33098;52.400;16.880;2023-05-07T05:57:41;4.60;;;4.10;;
24335;SDS011;33098;52.400;16.880;2023-05-07T06:00:08;7.70;;;4.20;;
24335;SDS011;33098;52.400;16.880;2023-05-07T06:02:45;5.90;;;3.70;;
24335;SDS011;33098;52.400;16.880;2023-05-07T06:05:18;5.60;;;3.30;;
24335;SDS011;33098;52.400;16.880;2023-05-07T06:07:51;4.60;;;3.20;;
24335;SDS011;33098;52.400;16.880;2023-05-07T06:10:20;4.10;;;3.20;;
24335;SDS011;33098;52.400;16.880;2023-05-07T06:12:47;3.90;;;3.20;;
24335;SDS011;33098;52.400;16.880;2023-05-07T06:15:15;5.50;;;3.20;;
24335;SDS011;33098;52.400;16.880;2023-05-07T06:17:42;6.30;;;3.20;;
24335;SDS011;33098;52.400;16.880;2023-05-07T06:20:09;5.10;;;3.20;;
24335;SDS011;33098;52.400;16.880;2023-05-07T06:22:40;5.80;;;3.10;;
24335;SDS011;33098;52.400;16.880;2023-05-07T06:25:08;3.50;;;2.50;;
24335;SDS011;33098;52.400;16.880;2023-05-07T06:27:35;4.20;;;2.70;;
24335;SDS011;33098;52.400;16.880;2023-05-07T06:30:05;5.30;;;2.80;;
24335;SDS011;33098;52.400;16.880;2023-05-07T06:32:37;5.40;;;2.90;;
24335;SDS011;33098;52.400;16.880;2023-05-07T06:35:04;2.90;;;2.60;;
24335;SDS011;33098;52.400;16.880;2023-05-07T06:40:04;3.80;;;3.10;;
24335;SDS011;33098;52.400;16.880;2023-05-07T06:42:37;3.50;;;2.80;;
24335;SDS011;33098;52.400;16.880;2023-05-07T06:45:19;4.00;;;2.70;;
24335;SDS011;33098;52.400;16.880;2023-05-07T06:47:49;3.70;;;2.90;;
24335;SDS011;33098;52.400;16.880;2023-05-07T06:50:15;4.20;;;2.80;;
24335;SDS011;33098;52.400;16.880;2023-05-07T06:52:46;3.40;;;2.70;;
24335;SDS011;33098;52.400;16.880;2023-05-07T06:55:18;3.30;;;2.60;;
24335;SDS011;33098;52.400;16.880;2023-05-07T06:57:48;3.10;;;2.20;;
24335;SDS011;33098;52.400;16.880;2023-05-07T07:00:18;3.40;;;2.30;;
24335;SDS011;33098;52.400;16.880;2023-05-07T07:02:50;3.80;;;2.30;;
24335;SDS011;33098;52.400;16.880;2023-05-07T07:05:18;3.90;;;2.00;;
24335;SDS011;33098;52.400;16.880;2023-05-07T07:07:45;2.50;;;1.80;;
24335;SDS011;33098;52.400;16.880;2023-05-07T07:10:19;4.00;;;1.70;;
24335;SDS011;33098;52.400;16.880;2023-05-07T07:12:46;4.00;;;1.80;;
24335;SDS011;33098;52.400;16.880;2023-05-07T07:15:13;5.10;;;1.90;;
24335;SDS011;33098;52.400;16.880;2023-05-07T07:17:42;3.10;;;1.80;;
24335;SDS011;33098;52.400;16.880;2023-05-07T07:20:09;2.60;;;1.60;;
24335;SDS011;33098;52.400;16.880;2023-05-07T07:22:36;2.20;;;1.90;;
24335;SDS011;33098;52.400;16.880;2023-05-07T07:25:04;2.10;;;1.70;;
24335;SDS011;33098;52.400;16.880;2023-05-07T07:27:31;4.20;;;1.60;;
24335;SDS011;33098;52.400;16.880;2023-05-07T07:30:03;2.70;;;1.40;;
24335;SDS011;33098;52.400;16.880;2023-05-07T07:32:35;2.20;;;1.40;;
24335;SDS011;33098;52.400;16.880;2023-05-07T07:35:02;2.60;;;1.50;;
24335;SDS011;33098;52.400;16.880;2023-05-07T07:37:28;2.40;;;1.50;;
24335;SDS011;33098;52.400;16.880;2023-05-07T07:39:56;3.30;;;1.40;;
24335;SDS011;33098;52.400;16.880;2023-05-07T07:42:23;3.90;;;1.50;;
24335;SDS011;33098;52.400;16.880;2023-05-07T07:44:50;3.30;;;1.60;;
24335;SDS011;33098;52.400;16.880;2023-05-07T07:47:18;2.30;;;1.70;;
24335;SDS011;33098;52.400;16.880;2023-05-07T07:49:48;2.30;;;1.70;;
24335;SDS011;33098;52.400;16.880;2023-05-07T07:52:18;1.80;;;1.40;;
24335;SDS011;33098;52.400;16.880;2023-05-07T07:54:48;1.50;;;1.40;;
24335;SDS011;33098;52.400;16.880;2023-05-07T07:57:15;2.10;;;1.20;;
24335;SDS011;33098;52.400;16.880;2023-05-07T07:59:41;3.40;;;1.50;;
24335;SDS011;33098;52.400;16.880;2023-05-07T08:02:10;2.20;;;1.40;;
24335;SDS011;33098;52.400;16.880;2023-05-07T08:04:38;1.40;;;1.30;;
24335;SDS011;33098;52.400;16.880;2023-05-07T08:07:05;3.00;;;1.50;;
24335;SDS011;33098;52.400;16.880;2023-05-07T08:09:35;1.90;;;1.60;;
24335;SDS011;33098;52.400;16.880;2023-05-07T08:12:06;2.10;;;1.60;;
24335;SDS011;33098;52.400;16.880;2023-05-07T08:14:35;1.60;;;1.50;;
24335;SDS011;33098;52.400;16.880;2023-05-07T08:17:03;2.40;;;1.50;;
24335;SDS011;33098;52.400;16.880;2023-05-07T08:19:33;2.70;;;1.50;;
24335;SDS011;33098;52.400;16.880;2023-05-07T08:21:59;2.50;;;1.70;;
24335;SDS011;33098;52.400;16.880;2023-05-07T08:24:27;3.40;;;1.80;;
24335;SDS011;33098;52.400;16.880;2023-05-07T08:26:53;2.00;;;1.60;;
24335;SDS011;33098;52.400;16.880;2023-05-07T08:29:20;2.80;;;1.60;;
24335;SDS011;33098;52.400;16.880;2023-05-07T08:31:47;2.40;;;1.60;;
24335;SDS011;33098;52.400;16.880;2023-05-07T08:34:14;2.20;;;2.00;;
24335;SDS011;33098;52.400;16.880;2023-05-07T08:36:42;2.80;;;1.70;;
24335;SDS011;33098;52.400;16.880;2023-05-07T08:39:12;2.10;;;1.70;;
24335;SDS011;33098;52.400;16.880;2023-05-07T08:41:44;3.00;;;1.60;;
24335;SDS011;33098;52.400;16.880;2023-05-07T08:44:14;3.00;;;1.50;;
24335;SDS011;33098;52.400;16.880;2023-05-07T08:46:45;2.50;;;1.70;;
24335;SDS011;33098;52.400;16.880;2023-05-07T08:49:15;2.40;;;1.60;;
24335;SDS011;33098;52.400;16.880;2023-05-07T08:51:47;1.70;;;1.50;;
24335;SDS011;33098;52.400;16.880;2023-05-07T08:54:17;2.60;;;1.50;;
24335;SDS011;33098;52.400;16.880;2023-05-07T08:56:46;4.30;;;1.70;;
24335;SDS011;33098;52.400;16.880;2023-05-07T08:59:13;1.70;;;1.50;;
24335;SDS011;33098;52.400;16.880;2023-05-07T09:01:41;2.40;;;1.50;;
24335;SDS011;33098;52.400;16.880;2023-05-07T09:04:08;2.80;;;1.60;;
24335;SDS011;33098;52.400;16.880;2023-05-07T09:06:38;2.60;;;1.70;;
24335;SDS011;33098;52.400;16.880;2023-05-07T09:09:08;2.90;;;1.60;;
24335;SDS011;33098;52.400;16.880;2023-05-07T09:11:37;3.60;;;1.80;;
24335;SDS011;33098;52.400;16.880;2023-05-07T09:14:03;2.10;;;1.70;;
24335;SDS011;33098;52.400;16.880;2023-05-07T09:16:34;2.60;;;2.00;;
24335;SDS011;33098;52.400;16.880;2023-05-07T09:19:02;3.90;;;1.80;;
24335;SDS011;33098;52.400;16.880;2023-05-07T09:21:29;4.10;;;1.90;;
24335;SDS011;33098;52.400;16.880;2023-05-07T09:26:37;3.00;;;1.90;;
24335;SDS011;33098;52.400;16.880;2023-05-07T09:29:04;2.40;;;1.90;;
24335;SDS011;33098;52.400;16.880;2023-05-07T09:31:32;2.00;;;1.60;;
24335;SDS011;33098;52.400;16.880;2023-05-07T09:34:05;2.50;;;1.80;;
24335;SDS011;33098;52.400;16.880;2023-05-07T09:36:32;3.10;;;1.90;;
24335;SDS011;33098;52.400;16.880;2023-05-07T09:38:59;2.10;;;1.60;;
24335;SDS011;33098;52.400;16.880;2023-05-07T09:41:30;2.60;;;1.80;;
24335;SDS011;33098;52.400;16.880;2023-05-07T09:44:12;2.60;;;2.00;;
24335;SDS011;33098;52.400;16.880;2023-05-07T09:46:47;3.90;;;2.00;;
24335;SDS011;33098;52.400;16.880;2023-05-07T09:49:23;2.20;;;1.90;;
24335;SDS011;33098;52.400;16.880;2023-05-07T09:51:55;2.80;;;1.60;;
24335;SDS011;33098;52.400;16.880;2023-05-07T09:54:24;1.60;;;1.50;;
24335;SDS011;33098;52.400;16.880;2023-05-07T09:56:54;2.30;;;1.70;;
24335;SDS011;33098;52.400;16.880;2023-05-07T09:59:26;2.30;;;1.80;;
24335;SDS011;33098;52.400;16.880;2023-05-07T10:01:54;4.10;;;1.70;;
24335;SDS011;33098;52.400;16.880;2023-05-07T10:04:27;1.60;;;1.50;;
24335;SDS011;33098;52.400;16.880;2023-05-07T10:09:22;3.10;;;1.80;;
24335;SDS011;33098;52.400;16.880;2023-05-07T10:11:50;2.70;;;1.80;;
24335;SDS011;33098;52.400;16.880;2023-05-07T10:14:17;2.10;;;1.70;;
24335;SDS011;33098;52.400;16.880;2023-05-07T10:16:44;1.90;;;1.70;;
24335;SDS011;33098;52.400;16.880;2023-05-07T10:19:14;1.90;;;1.60;;
24335;SDS011;33098;52.400;16.880;2023-05-07T10:21:51;1.90;;;1.60;;
24335;SDS011;33098;52.400;16.880;2023-05-07T10:24:26;4.30;;;1.70;;
24335;SDS011;33098;52.400;16.880;2023-05-07T10:26:57;2.20;;;1.60;;
24335;SDS011;33098;52.400;16.880;2023-05-07T10:35:16;2.40;;;1.70;;
24335;SDS011;33098;52.400;16.880;2023-05-07T10:37:48;3.90;;;2.20;;
24335;SDS011;33098;52.400;16.880;2023-05-07T10:40:18;3.00;;;1.70;;
24335;SDS011;33098;52.400;16.880;2023-05-07T10:42:55;2.40;;;1.70;;
24335;SDS011;33098;52.400;16.880;2023-05-07T10:45:26;3.10;;;1.60;;
24335;SDS011;33098;52.400;16.880;2023-05-07T10:48:14;4.20;;;1.50;;
24335;SDS011;33098;52.400;16.880;2023-05-07T10:50:49;2.90;;;1.70;;
24335;SDS011;33098;52.400;16.880;2023-05-07T10:58:46;2.40;;;1.80;;
24335;SDS011;33098;52.400;16.880;2023-05-07T11:04:45;3.10;;;1.70;;
24335;SDS011;33098;52.400;16.880;2023-05-07T11:07:55;2.40;;;1.90;;
24335;SDS011;33098;52.400;16.880;2023-05-07T11:13:44;3.00;;;1.70;;
24335;SDS011;33098;52.400;16.880;2023-05-07T11:16:19;4.20;;;1.70;;
24335;SDS011;33098;52.400;16.880;2023-05-07T11:18:52;2.50;;;1.50;;
24335;SDS011;33098;52.400;16.880;2023-05-07T11:24:12;1.70;;;1.50;;
24335;SDS011;33098;52.400;16.880;2023-05-07T11:26:55;2.30;;;1.50;;
24335;SDS011;33098;52.400;16.880;2023-05-07T11:29:27;3.00;;;1.50;;
24335;SDS011;33098;52.400;16.880;2023-05-07T11:32:06;2.70;;;1.30;;
24335;SDS011;33098;52.400;16.880;2023-05-07T11:34:38;1.50;;;1.40;;
24335;SDS011;33098;52.400;16.880;2023-05-07T11:37:05;5.10;;;1.60;;
24335;SDS011;33098;52.400;16.880;2023-05-07T11:39:43;1.80;;;1.20;;
24335;SDS011;33098;52.400;16.880;2023-05-07T11:42:32;1.90;;;1.50;;
24335;SDS011;33098;52.400;16.880;2023-05-07T11:45:00;2.40;;;1.60;;
24335;SDS011;33098;52.400;16.880;2023-05-07T11:47:32;1.90;;;1.50;;
24335;SDS011;33098;52.400;16.880;2023-05-07T11:50:06;3.50;;;1.70;;
24335;SDS011;33098;52.400;16.880;2023-05-07T11:52:35;1.60;;;1.50;;
24335;SDS011;33098;52.400;16.880;2023-05-07T11:55:02;1.70;;;1.60;;
24335;SDS011;33098;52.400;16.880;2023-05-07T11:57:30;2.30;;;1.60;;
24335;SDS011;33098;52.400;16.880;2023-05-07T12:00:00;2.10;;;1.50;;
24335;SDS011;33098;52.400;16.880;2023-05-07T12:02:39;2.00;;;1.20;;
24335;SDS011;33098;52.400;16.880;2023-05-07T12:05:08;2.00;;;1.40;;
24335;SDS011;33098;52.400;16.880;2023-05-07T12:07:35;1.50;;;1.20;;
24335;SDS011;33098;52.400;16.880;2023-05-07T12:10:05;2.30;;;1.60;;
24335;SDS011;33098;52.400;16.880;2023-05-07T12:12:40;2.00;;;1.60;;
24335;SDS011;33098;52.400;16.880;2023-05-07T12:15:11;2.30;;;1.60;;
24335;SDS011;33098;52.400;16.880;2023-05-07T12:17:37;2.40;;;1.60;;
24335;SDS011;33098;52.400;16.880;2023-05-07T12:20:06;4.70;;;1.60;;
24335;SDS011;33098;52.400;16.880;2023-05-07T12:22:36;2.40;;;1.60;;
24335;SDS011;33098;52.400;16.880;2023-05-07T12:25:03;2.80;;;1.90;;
24335;SDS011;33098;52.400;16.880;2023-05-07T12:27:36;5.00;;;1.80;;
24335;SDS011;33098;52.400;16.880;2023-05-07T12:30:05;3.10;;;1.60;;
24335;SDS011;33098;52.400;16.880;2023-05-07T12:32:32;2.00;;;1.80;;
24335;SDS011;33098;52.400;16.880;2023-05-07T12:35:03;2.50;;;1.50;;
24335;SDS011;33098;52.400;16.880;2023-05-07T12:37:32;3.20;;;1.80;;
24335;SDS011;33098;52.400;16.880;2023-05-07T12:40:06;3.20;;;1.80;;
24335;SDS011;33098;52.400;16.880;2023-05-07T12:42:37;1.90;;;1.60;;
24335;SDS011;33098;52.400;16.880;2023-05-07T12:45:13;2.10;;;1.70;;
24335;SDS011;33098;52.400;16.880;2023-05-07T12:47:45;2.60;;;1.80;;
24335;SDS011;33098;52.400;16.880;2023-05-07T12:50:16;3.00;;;1.70;;
24335;SDS011;33098;52.400;16.880;2023-05-07T12:52:43;2.90;;;2.00;;
24335;SDS011;33098;52.400;16.880;2023-05-07T12:55:12;3.30;;;1.90;;
24335;SDS011;33098;52.400;16.880;2023-05-07T12:57:41;2.90;;;1.90;;
24335;SDS011;33098;52.400;16.880;2023-05-07T13:00:10;3.20;;;1.70;;
24335;SDS011;33098;52.400;16.880;2023-05-07T13:02:40;1.90;;;1.70;;
24335;SDS011;33098;52.400;16.880;2023-05-07T13:05:10;2.40;;;1.60;;
24335;SDS011;33098;52.400;16.880;2023-05-07T13:07:37;1.90;;;1.60;;
24335;SDS011;33098;52.400;16.880;2023-05-07T13:10:04;2.20;;;1.80;;
24335;SDS011;33098;52.400;16.880;2023-05-07T13:12:32;2.50;;;1.80;;
24335;SDS011;33098;52.400;16.880;2023-05-07T13:14:58;2.70;;;1.70;;
24335;SDS011;33098;52.400;16.880;2023-05-07T13:17:32;2.10;;;1.60;;
24335;SDS011;33098;52.400;16.880;2023-05-07T13:19:59;2.60;;;1.60;;
24335;SDS011;33098;52.400;16.880;2023-05-07T13:22:26;2.00;;;1.70;;
24335;SDS011;33098;52.400;16.880;2023-05-07T13:24:52;1.80;;;1.40;;
24335;SDS011;33098;52.400;16.880;2023-05-07T13:27:19;2.50;;;1.60;;
24335;SDS011;33098;52.400;16.880;2023-05-07T13:29:46;2.70;;;1.80;;
24335;SDS011;33098;52.400;16.880;2023-05-07T13:32:13;2.40;;;1.80;;
24335;SDS011;33098;52.400;16.880;2023-05-07T13:34:39;2.90;;;1.90;;
24335;SDS011;33098;52.400;16.880;2023-05-07T13:37:06;3.50;;;1.80;;
24335;SDS011;33098;52.400;16.880;2023-05-07T13:39:33;1.90;;;1.60;;
24335;SDS011;33098;52.400;16.880;2023-05-07T13:42:00;4.00;;;1.80;;
24335;SDS011;33098;52.400;16.880;2023-05-07T13:44:27;3.40;;;1.60;;
24335;SDS011;33098;52.400;16.880;2023-05-07T13:46:56;2.20;;;1.90;;
24335;SDS011;33098;52.400;16.880;2023-05-07T13:49:23;2.50;;;2.20;;
24335;SDS011;33098;52.400;16.880;2023-05-07T13:51:50;1.80;;;1.60;;
24335;SDS011;33098;52.400;16.880;2023-05-07T13:54:16;2.50;;;2.00;;
24335;SDS011;33098;52.400;16.880;2023-05-07T13:56:46;2.00;;;1.80;;
24335;SDS011;33098;52.400;16.880;2023-05-07T13:59:13;2.70;;;1.70;;
24335;SDS011;33098;52.400;16.880;2023-05-07T14:01:43;4.50;;;1.90;;
24335;SDS011;33098;52.400;16.880;2023-05-07T14:04:10;2.40;;;1.90;;
24335;SDS011;33098;52.400;16.880;2023-05-07T14:06:44;2.00;;;1.80;;
24335;SDS011;33098;52.400;16.880;2023-05-07T14:09:11;3.00;;;1.90;;
24335;SDS011;33098;52.400;16.880;2023-05-07T14:11:42;2.40;;;2.00;;
24335;SDS011;33098;52.400;16.880;2023-05-07T14:14:09;3.50;;;1.60;;
24335;SDS011;33098;52.400;16.880;2023-05-07T14:16:43;2.80;;;1.90;;
24335;SDS011;33098;52.400;16.880;2023-05-07T14:19:11;3.50;;;2.00;;
24335;SDS011;33098;52.400;16.880;2023-05-07T14:21:41;4.90;;;2.10;;
24335;SDS011;33098;52.400;16.880;2023-05-07T14:24:08;2.50;;;1.70;;
24335;SDS011;33098;52.400;16.880;2023-05-07T14:26:35;2.10;;;1.90;;
24335;SDS011;33098;52.400;16.880;2023-05-07T14:29:02;3.50;;;2.00;;
24335;SDS011;33098;52.400;16.880;2023-05-07T14:31:29;2.20;;;1.70;;
24335;SDS011;33098;52.400;16.880;2023-05-07T14:33:56;3.90;;;1.90;;
24335;SDS011;33098;52.400;16.880;2023-05-07T14:36:24;2.50;;;1.80;;
24335;SDS011;33098;52.400;16.880;2023-05-07T14:39:01;2.10;;;1.60;;
24335;SDS011;33098;52.400;16.880;2023-05-07T14:41:29;3.50;;;1.80;;
24335;SDS011;33098;52.400;16.880;2023-05-07T14:43:58;3.90;;;1.70;;
24335;SDS011;33098;52.400;16.880;2023-05-07T14:46:25;2.00;;;1.60;;
24335;SDS011;33098;52.400;16.880;2023-05-07T14:48:52;2.10;;;1.70;;
24335;SDS011;33098;52.400;16.880;2023-05-07T14:51:19;1.90;;;1.60;;
24335;SDS011;33098;52.400;16.880;2023-05-07T14:53:47;2.10;;;1.90;;
24335;SDS011;33098;52.400;16.880;2023-05-07T14:56:13;2.00;;;1.80;;
24335;SDS011;33098;52.400;16.880;2023-05-07T14:58:40;2.50;;;2.00;;
24335;SDS011;33098;52.400;16.880;2023-05-07T15:01:10;2.60;;;2.10;;
24335;SDS011;33098;52.400;16.880;2023-05-07T15:06:08;3.90;;;2.20;;
24335;SDS011;33098;52.400;16.880;2023-05-07T15:08:35;4.00;;;2.70;;
24335;SDS011;33098;52.400;16.880;2023-05-07T15:11:02;2.20;;;2.00;;
24335;SDS011;33098;52.400;16.880;2023-05-07T15:13:31;3.10;;;2.30;;
24335;SDS011;33098;52.400;16.880;2023-05-07T15:16:04;4.10;;;2.30;;
24335;SDS011;33098;52.400;16.880;2023-05-07T15:18:33;2.80;;;1.80;;
24335;SDS011;33098;52.400;16.880;2023-05-07T15:21:03;2.20;;;2.00;;